PWSweather.com
Personal Weather Stations
Station Observations

LlefiĆ BadalonaES

Lat: 41.44, Lon: 2.2175

Elevation: 213.254

Station Type: oregon WMR918

http://www.estacionmeteorologicabadalonallefia.com

Latest ConditionsUpdated 4:30:04 AM GMT+01:01 Sunday, Apr 20, 2014
Currently Today's Max Today's Min Today's Average
Temperature 54.5°F12.5°C 58.6°F14.8°C 54.5°F12.5°C 56.8°F13.8°C
Dew Point 48.8°F9.3°C 48.8°F9.3°C 43.1°F6.2°C 45.8°F7.7°C
Winds 4.2 mph NW6.8 kmh NW 4.3 mph NW6.9 kmh NW - 1.8 mph 2.9 kmh
Wind Gusts 7.6 mph12.2 kmh 7.6 mph12.2 kmh - -
Humidity 81% 81% 57% 67%
Pressure 29.62 in1003.0 mb 29.74 in1007.1 mb 29.62 in1003.0 mb -
Precipitation - 0.09 in2.3 mm - -
Hour Temp Dew Point Humidity Winds Wind Gusts Pressure Precip Precip Rate Daily Precip Total
04:30 AM 54.5°F12.5°C 48.8°F9.3°C 81% 4.2 mph NW6.8 kmh NW 7.6 mph12.2 kmh 29.62 in1003.0 mb 0.00 in0.0 mm 0.00 in/hr0.0 mm/hr 0.09 in2.3 mm
04:20 AM 54.5°F12.5°C 48.5°F9.2°C 80% 2.6 mph NW4.2 kmh NW 4.6 mph7.4 kmh 29.62 in1003.0 mb 0.00 in0.0 mm 0.00 in/hr0.0 mm/hr 0.09 in2.3 mm
04:10 AM 54.5°F12.5°C 48.5°F9.2°C 80% 0.5 mph NW0.8 kmh NW 4.6 mph7.4 kmh 29.62 in1003.0 mb 0.00 in0.0 mm 0.00 in/hr0.0 mm/hr 0.09 in2.3 mm
04:00 AM 54.5°F12.5°C 48.1°F8.9°C 79% 3.6 mph NW5.8 kmh NW 5.2 mph8.4 kmh 29.62 in1003.0 mb 0.00 in0.0 mm 0.00 in/hr0.0 mm/hr 0.09 in2.3 mm
03:50 AM 54.9°F12.7°C 48.5°F9.2°C 79% Calm Calm 5.2 mph8.4 kmh 29.65 in1004.1 mb 0.00 in0.0 mm 0.00 in/hr0.0 mm/hr 0.09 in2.3 mm
03:40 AM 54.9°F12.7°C 48.5°F9.2°C 79% Calm Calm 2.9 mph4.7 kmh 29.65 in1004.1 mb 0.00 in0.0 mm 0.00 in/hr0.0 mm/hr 0.09 in2.3 mm
03:30 AM 54.9°F12.7°C 48.1°F8.9°C 78% 2.9 mph NW4.7 kmh NW 4.6 mph7.4 kmh 29.65 in1004.1 mb 0.00 in0.0 mm 0.00 in/hr0.0 mm/hr 0.09 in2.3 mm
03:20 AM 55.2°F12.9°C 47.4°F8.6°C 75% 3.2 mph NW5.1 kmh NW 6.4 mph10.3 kmh 29.65 in1004.1 mb 0.00 in0.0 mm 0.00 in/hr0.0 mm/hr 0.09 in2.3 mm
03:10 AM 55.4°F13.0°C 46.5°F8.1°C 72% 3.1 mph NW5.0 kmh NW 4.6 mph7.4 kmh 29.65 in1004.1 mb 0.00 in0.0 mm 0.00 in/hr0.0 mm/hr 0.09 in2.3 mm
03:00 AM 55.9°F13.3°C 45.9°F7.7°C 69% 4.3 mph NW6.9 kmh NW 5.2 mph8.4 kmh 29.65 in1004.1 mb 0.00 in0.0 mm 0.00 in/hr0.0 mm/hr 0.09 in2.3 mm
02:50 AM 56.1°F13.4°C 45.3°F7.4°C 67% Calm Calm 4.6 mph7.4 kmh 29.65 in1004.1 mb 0.01 in0.3 mm 0.06 in/hr1.5 mm/hr 0.09 in2.3 mm
02:40 AM 56.5°F13.6°C 45.7°F7.6°C 67% 3.9 mph NE6.3 kmh NE 5.2 mph8.4 kmh 29.65 in1004.1 mb 0.02 in0.5 mm 0.12 in/hr3.0 mm/hr 0.08 in2.0 mm
02:30 AM 56.8°F13.8°C 45.2°F7.3°C 65% Calm Calm -- 29.65 in1004.1 mb 0.01 in0.3 mm 0.06 in/hr1.5 mm/hr 0.06 in1.5 mm
02:20 AM 57.0°F13.9°C 44.5°F6.9°C 63% 2.3 mph NE3.7 kmh NE 4.6 mph7.4 kmh 29.65 in1004.1 mb 0.01 in0.3 mm 0.06 in/hr1.5 mm/hr 0.05 in1.3 mm
02:10 AM 57.4°F14.1°C 44.0°F6.7°C 61% Calm Calm -- 29.65 in1004.1 mb 0.01 in0.3 mm 0.06 in/hr1.5 mm/hr 0.04 in1.0 mm
02:00 AM 57.7°F14.3°C 43.9°F6.6°C 60% 2.7 mph NW4.3 kmh NW 5.2 mph8.4 kmh 29.65 in1004.1 mb 0.02 in0.5 mm 0.02 in/hr0.5 mm/hr 0.03 in0.8 mm
01:50 AM 58.1°F14.5°C 43.4°F6.3°C 58% 1.9 mph N3.1 kmh N 4.1 mph6.6 kmh 29.65 in1004.1 mb 0.01 in0.3 mm 0.06 in/hr1.5 mm/hr 0.01 in0.3 mm
01:40 AM 58.3°F14.6°C 43.1°F6.2°C 57% 3.1 mph NE5.0 kmh NE 4.1 mph6.6 kmh 29.68 in1005.1 mb 0.00 in0.0 mm 0.00 in/hr0.0 mm/hr 0.00 in0.0 mm
01:30 AM 58.3°F14.6°C 43.6°F6.4°C 58% 3.9 mph NNE6.3 kmh NNE 5.2 mph8.4 kmh 29.68 in1005.1 mb 0.00 in0.0 mm 0.00 in/hr0.0 mm/hr 0.00 in0.0 mm
01:20 AM 58.5°F14.7°C 44.6°F7.0°C 60% Calm Calm -- 29.68 in1005.1 mb 0.00 in0.0 mm 0.00 in/hr0.0 mm/hr 0.00 in0.0 mm
01:10 AM 58.5°F14.7°C 44.6°F7.0°C 60% 0.4 mph NNE0.6 kmh NNE 4.6 mph7.4 kmh 29.71 in1006.1 mb 0.00 in0.0 mm 0.00 in/hr0.0 mm/hr 0.00 in0.0 mm
01:00 AM 58.3°F14.6°C 44.9°F7.2°C 61% 0.4 mph NW0.6 kmh NW 4.1 mph6.6 kmh 29.71 in1006.1 mb 0.00 in0.0 mm 0.00 in/hr0.0 mm/hr 0.00 in0.0 mm
12:50 AM 58.3°F14.6°C 45.3°F7.4°C 62% Calm Calm 3.5 mph5.6 kmh 29.71 in1006.1 mb 0.00 in0.0 mm 0.00 in/hr0.0 mm/hr 0.00 in0.0 mm
12:40 AM 58.3°F14.6°C 45.3°F7.4°C 62% Calm Calm 4.1 mph6.6 kmh 29.71 in1006.1 mb 0.00 in0.0 mm 0.00 in/hr0.0 mm/hr 0.00 in0.0 mm
12:30 AM 58.3°F14.6°C 45.3°F7.4°C 62% Calm Calm 2.9 mph4.7 kmh 29.71 in1006.1 mb 0.00 in0.0 mm 0.00 in/hr0.0 mm/hr 0.00 in0.0 mm
12:20 AM 58.3°F14.6°C 44.9°F7.2°C 61% 3.7 mph NW6.0 kmh NW 6.4 mph10.3 kmh 29.74 in1007.1 mb 0.00 in0.0 mm 0.00 in/hr0.0 mm/hr 0.00 in0.0 mm
12:10 AM 58.5°F14.7°C 45.1°F7.3°C 61% Calm Calm -- 29.74 in1007.1 mb 0.00 in0.0 mm 0.00 in/hr0.0 mm/hr 0.00 in0.0 mm
12:00 AM 58.6°F14.8°C 45.2°F7.3°C 61% 2.6 mph NW4.2 kmh NW 4.1 mph6.6 kmh 29.74 in1007.1 mb 0.00 in0.0 mm 0.00 in/hr0.0 mm/hr 0.00 in0.0 mm